sensor_id;sensor_type;location;lat;lon;timestamp;temperature;humidity
34360;DHT22;20624;55.870;26.506;2023-02-15T00:12:10;0.20;90.50
34360;DHT22;20624;55.870;26.506;2023-02-15T00:49:10;0.00;81.40
34360;DHT22;20624;55.870;26.506;2023-02-15T01:11:22;-0.10;84.20
34360;DHT22;20624;55.870;26.506;2023-02-15T01:13:57;-0.10;86.30
34360;DHT22;20624;55.870;26.506;2023-02-15T01:16:27;-0.10;87.90
34360;DHT22;20624;55.870;26.506;2023-02-15T01:46:51;0.00;87.70
34360;DHT22;20624;55.870;26.506;2023-02-15T01:49:25;0.00;86.50
34360;DHT22;20624;55.870;26.506;2023-02-15T01:51:53;0.00;86.70
34360;DHT22;20624;55.870;26.506;2023-02-15T02:01:55;0.00;87.10
34360;DHT22;20624;55.870;26.506;2023-02-15T02:06:57;-0.10;90.80
34360;DHT22;20624;55.870;26.506;2023-02-15T02:33:09;-0.20;94.20
34360;DHT22;20624;55.870;26.506;2023-02-15T02:43:40;-0.20;93.40
34360;DHT22;20624;55.870;26.506;2023-02-15T02:58:44;-0.20;91.20
34360;DHT22;20624;55.870;26.506;2023-02-15T03:01:37;-0.10;91.00
34360;DHT22;20624;55.870;26.506;2023-02-15T03:04:15;-0.10;90.90
34360;DHT22;20624;55.870;26.506;2023-02-15T03:07:03;-0.10;91.80
34360;DHT22;20624;55.870;26.506;2023-02-15T03:12:15;-0.10;93.00
34360;DHT22;20624;55.870;26.506;2023-02-15T03:14:52;-0.20;93.40
34360;DHT22;20624;55.870;26.506;2023-02-15T03:17:23;-0.20;93.40
34360;DHT22;20624;55.870;26.506;2023-02-15T03:19:56;-0.10;91.70
34360;DHT22;20624;55.870;26.506;2023-02-15T03:22:38;-0.10;91.50
34360;DHT22;20624;55.870;26.506;2023-02-15T03:25:15;-0.10;90.50
34360;DHT22;20624;55.870;26.506;2023-02-15T03:30:18;0.00;90.80
34360;DHT22;20624;55.870;26.506;2023-02-15T03:40:19;-0.10;90.80
34360;DHT22;20624;55.870;26.506;2023-02-15T03:43:37;0.00;90.20
34360;DHT22;20624;55.870;26.506;2023-02-15T03:51:17;-0.10;91.70
34360;DHT22;20624;55.870;26.506;2023-02-15T04:07:03;-0.10;97.00
34360;DHT22;20624;55.870;26.506;2023-02-15T04:09:31;-0.10;97.00
34360;DHT22;20624;55.870;26.506;2023-02-15T04:22:46;-0.20;99.90
34360;DHT22;20624;55.870;26.506;2023-02-15T04:35:24;-0.20;99.00
34360;DHT22;20624;55.870;26.506;2023-02-15T04:47:44;-0.10;99.90
34360;DHT22;20624;55.870;26.506;2023-02-15T05:04:59;0.10;99.90
34360;DHT22;20624;55.870;26.506;2023-02-15T05:07:27;0.10;99.90
34360;DHT22;20624;55.870;26.506;2023-02-15T05:42:37;0.20;99.90
34360;DHT22;20624;55.870;26.506;2023-02-15T05:54:56;0.30;98.90
34360;DHT22;20624;55.870;26.506;2023-02-15T06:14:38;0.70;93.10
34360;DHT22;20624;55.870;26.506;2023-02-15T06:29:25;0.90;91.60
34360;DHT22;20624;55.870;26.506;2023-02-15T06:31:53;0.90;91.80
34360;DHT22;20624;55.870;26.506;2023-02-15T07:23:57;0.90;85.20
34360;DHT22;20624;55.870;26.506;2023-02-15T07:36:20;2.10;81.20
34360;DHT22;20624;55.870;26.506;2023-02-15T07:38:47;2.20;79.70
34360;DHT22;20624;55.870;26.506;2023-02-15T07:43:44;2.30;76.80
34360;DHT22;20624;55.870;26.506;2023-02-15T07:46:15;2.30;73.70
34360;DHT22;20624;55.870;26.506;2023-02-15T07:48:44;2.40;72.40
34360;DHT22;20624;55.870;26.506;2023-02-15T07:56:12;2.40;75.30
34360;DHT22;20624;55.870;26.506;2023-02-15T08:01:22;1.80;72.90
34360;DHT22;20624;55.870;26.506;2023-02-15T08:06:18;2.60;70.70
34360;DHT22;20624;55.870;26.506;2023-02-15T08:14:19;2.80;65.00
34360;DHT22;20624;55.870;26.506;2023-02-15T08:19:27;3.00;61.90
34360;DHT22;20624;55.870;26.506;2023-02-15T08:24:28;3.20;64.00
34360;DHT22;20624;55.870;26.506;2023-02-15T08:26:57;3.10;61.80
34360;DHT22;20624;55.870;26.506;2023-02-15T08:29:27;3.30;59.10
34360;DHT22;20624;55.870;26.506;2023-02-15T08:31:56;3.30;62.40
34360;DHT22;20624;55.870;26.506;2023-02-15T08:36:58;3.40;62.50
34360;DHT22;20624;55.870;26.506;2023-02-15T08:49:21;3.60;58.40
34360;DHT22;20624;55.870;26.506;2023-02-15T08:59:17;3.80;56.10
34360;DHT22;20624;55.870;26.506;2023-02-15T09:01:45;3.70;52.40
34360;DHT22;20624;55.870;26.506;2023-02-15T09:06:45;4.20;49.10
34360;DHT22;20624;55.870;26.506;2023-02-15T09:11:44;4.30;48.40
34360;DHT22;20624;55.870;26.506;2023-02-15T09:14:13;4.40;46.80
34360;DHT22;20624;55.870;26.506;2023-02-15T09:26:39;4.80;43.90
34360;DHT22;20624;55.870;26.506;2023-02-15T09:31:40;5.00;43.60
34360;DHT22;20624;55.870;26.506;2023-02-15T09:34:13;5.00;42.70
34360;DHT22;20624;55.870;26.506;2023-02-15T09:54:07;6.00;41.00
34360;DHT22;20624;55.870;26.506;2023-02-15T09:56:45;6.20;40.80
34360;DHT22;20624;55.870;26.506;2023-02-15T09:59:27;6.50;38.00
34360;DHT22;20624;55.870;26.506;2023-02-15T10:07:47;6.50;37.60
34360;DHT22;20624;55.870;26.506;2023-02-15T10:13:36;4.90;36.10
34360;DHT22;20624;55.870;26.506;2023-02-15T10:18:52;6.80;36.60
34360;DHT22;20624;55.870;26.506;2023-02-15T10:24:20;6.70;36.60
34360;DHT22;20624;55.870;26.506;2023-02-15T10:26:58;6.70;37.10
34360;DHT22;20624;55.870;26.506;2023-02-15T10:29:37;6.80;36.80
34360;DHT22;20624;55.870;26.506;2023-02-15T10:32:25;7.00;37.60
34360;DHT22;20624;55.870;26.506;2023-02-15T10:41:07;6.70;37.30
34360;DHT22;20624;55.870;26.506;2023-02-15T10:43:46;6.80;37.90
34360;DHT22;20624;55.870;26.506;2023-02-15T10:54:16;6.80;36.70
34360;DHT22;20624;55.870;26.506;2023-02-15T11:07:52;7.50;37.70
34360;DHT22;20624;55.870;26.506;2023-02-15T11:10:32;7.10;37.20
34360;DHT22;20624;55.870;26.506;2023-02-15T11:16:07;7.20;37.10
34360;DHT22;20624;55.870;26.506;2023-02-15T11:21:40;7.20;39.10
34360;DHT22;20624;55.870;26.506;2023-02-15T11:24:12;7.00;42.70
34360;DHT22;20624;55.870;26.506;2023-02-15T11:26:45;7.20;46.50
34360;DHT22;20624;55.870;26.506;2023-02-15T11:32:21;7.30;50.80
34360;DHT22;20624;55.870;26.506;2023-02-15T11:35:36;7.30;51.90
34360;DHT22;20624;55.870;26.506;2023-02-15T11:37:57;7.20;53.50
34360;DHT22;20624;55.870;26.506;2023-02-15T11:43:00;7.20;54.70
34360;DHT22;20624;55.870;26.506;2023-02-15T11:45:32;7.10;55.80
34360;DHT22;20624;55.870;26.506;2023-02-15T11:48:01;7.10;56.90
34360;DHT22;20624;55.870;26.506;2023-02-15T11:50:36;7.10;57.50
34360;DHT22;20624;55.870;26.506;2023-02-15T11:53:11;7.10;58.30
34360;DHT22;20624;55.870;26.506;2023-02-15T11:55:40;7.10;58.40
34360;DHT22;20624;55.870;26.506;2023-02-15T12:09:01;7.00;59.90
34360;DHT22;20624;55.870;26.506;2023-02-15T12:11:38;6.90;59.80
34360;DHT22;20624;55.870;26.506;2023-02-15T12:14:08;6.90;61.10
34360;DHT22;20624;55.870;26.506;2023-02-15T12:16:46;7.00;61.20
34360;DHT22;20624;55.870;26.506;2023-02-15T12:19:36;7.00;61.30
34360;DHT22;20624;55.870;26.506;2023-02-15T12:22:05;6.90;60.80
34360;DHT22;20624;55.870;26.506;2023-02-15T12:24:43;6.90;61.50
34360;DHT22;20624;55.870;26.506;2023-02-15T12:27:32;6.90;61.60
34360;DHT22;20624;55.870;26.506;2023-02-15T12:30:22;7.00;61.60
34360;DHT22;20624;55.870;26.506;2023-02-15T12:33:26;6.90;62.00
34360;DHT22;20624;55.870;26.506;2023-02-15T12:39:15;6.90;62.60
34360;DHT22;20624;55.870;26.506;2023-02-15T12:49:36;6.70;64.00
34360;DHT22;20624;55.870;26.506;2023-02-15T12:52:25;6.70;64.40
34360;DHT22;20624;55.870;26.506;2023-02-15T12:54:55;6.70;63.80
34360;DHT22;20624;55.870;26.506;2023-02-15T12:57:36;6.70;64.30
34360;DHT22;20624;55.870;26.506;2023-02-15T13:02:48;6.60;63.90
34360;DHT22;20624;55.870;26.506;2023-02-15T13:05:22;6.60;63.20
34360;DHT22;20624;55.870;26.506;2023-02-15T13:08:08;6.30;63.00
34360;DHT22;20624;55.870;26.506;2023-02-15T13:10:57;6.40;63.70
34360;DHT22;20624;55.870;26.506;2023-02-15T13:13:31;6.00;65.50
34360;DHT22;20624;55.870;26.506;2023-02-15T13:16:02;5.80;67.70
34360;DHT22;20624;55.870;26.506;2023-02-15T13:18:43;5.60;72.90
34360;DHT22;20624;55.870;26.506;2023-02-15T13:21:20;5.60;72.80
34360;DHT22;20624;55.870;26.506;2023-02-15T13:27:20;5.10;79.90
34360;DHT22;20624;55.870;26.506;2023-02-15T13:29:53;4.90;83.30
34360;DHT22;20624;55.870;26.506;2023-02-15T13:32:27;4.90;85.00
34360;DHT22;20624;55.870;26.506;2023-02-15T13:51:43;4.70;90.10
34360;DHT22;20624;55.870;26.506;2023-02-15T13:54:47;4.40;91.40
34360;DHT22;20624;55.870;26.506;2023-02-15T13:57:40;4.50;92.60
34360;DHT22;20624;55.870;26.506;2023-02-15T14:00:24;4.40;93.00
34360;DHT22;20624;55.870;26.506;2023-02-15T14:06:36;4.20;95.80
34360;DHT22;20624;55.870;26.506;2023-02-15T14:19:44;4.10;99.90
34360;DHT22;20624;55.870;26.506;2023-02-15T14:28:17;4.10;99.90
34360;DHT22;20624;55.870;26.506;2023-02-15T14:30:50;4.10;99.90
34360;DHT22;20624;55.870;26.506;2023-02-15T14:36:06;3.90;99.90
34360;DHT22;20624;55.870;26.506;2023-02-15T14:41:28;3.70;99.90
34360;DHT22;20624;55.870;26.506;2023-02-15T14:52:14;3.50;99.90
34360;DHT22;20624;55.870;26.506;2023-02-15T15:02:15;3.50;99.90
34360;DHT22;20624;55.870;26.506;2023-02-15T15:05:11;3.40;99.90
34360;DHT22;20624;55.870;26.506;2023-02-15T15:12:53;3.40;99.90
34360;DHT22;20624;55.870;26.506;2023-02-15T15:26:22;3.40;99.90
34360;DHT22;20624;55.870;26.506;2023-02-15T15:32:10;3.20;99.90
34360;DHT22;20624;55.870;26.506;2023-02-15T15:34:49;3.40;99.90
34360;DHT22;20624;55.870;26.506;2023-02-15T15:40:30;3.30;99.90
34360;DHT22;20624;55.870;26.506;2023-02-15T15:43:27;3.30;99.90
34360;DHT22;20624;55.870;26.506;2023-02-15T15:49:10;3.20;99.90
34360;DHT22;20624;55.870;26.506;2023-02-15T15:51:41;3.10;99.90
34360;DHT22;20624;55.870;26.506;2023-02-15T15:56:52;2.90;99.90
34360;DHT22;20624;55.870;26.506;2023-02-15T15:59:27;1.30;99.90
34360;DHT22;20624;55.870;26.506;2023-02-15T16:01:56;2.70;99.90
34360;DHT22;20624;55.870;26.506;2023-02-15T16:04:32;2.60;99.90
34360;DHT22;20624;55.870;26.506;2023-02-15T16:12:15;2.40;99.90
34360;DHT22;20624;55.870;26.506;2023-02-15T16:14:49;2.00;99.90
34360;DHT22;20624;55.870;26.506;2023-02-15T16:17:23;2.20;99.90
34360;DHT22;20624;55.870;26.506;2023-02-15T16:22:22;2.50;99.90
34360;DHT22;20624;55.870;26.506;2023-02-15T16:27:46;2.10;99.90
34360;DHT22;20624;55.870;26.506;2023-02-15T16:30:27;2.00;99.90
34360;DHT22;20624;55.870;26.506;2023-02-15T16:33:07;2.00;99.90
34360;DHT22;20624;55.870;26.506;2023-02-15T16:35:37;2.10;99.90
34360;DHT22;20624;55.870;26.506;2023-02-15T16:43:20;2.10;99.90
34360;DHT22;20624;55.870;26.506;2023-02-15T16:45:50;2.10;99.90
34360;DHT22;20624;55.870;26.506;2023-02-15T16:48:21;2.10;99.90
34360;DHT22;20624;55.870;26.506;2023-02-15T16:50:56;2.10;99.90
34360;DHT22;20624;55.870;26.506;2023-02-15T16:53:26;2.20;99.90
34360;DHT22;20624;55.870;26.506;2023-02-15T16:55:55;2.10;99.90
34360;DHT22;20624;55.870;26.506;2023-02-15T16:58:37;2.00;99.90
34360;DHT22;20624;55.870;26.506;2023-02-15T17:01:12;2.00;99.90
34360;DHT22;20624;55.870;26.506;2023-02-15T17:03:41;2.00;99.90
34360;DHT22;20624;55.870;26.506;2023-02-15T17:06:26;1.90;99.90
34360;DHT22;20624;55.870;26.506;2023-02-15T17:09:13;1.90;99.90
34360;DHT22;20624;55.870;26.506;2023-02-15T17:11:47;1.90;99.90
34360;DHT22;20624;55.870;26.506;2023-02-15T17:14:18;1.90;99.90
34360;DHT22;20624;55.870;26.506;2023-02-15T17:16:53;1.90;99.90
34360;DHT22;20624;55.870;26.506;2023-02-15T17:19:27;1.90;99.90
34360;DHT22;20624;55.870;26.506;2023-02-15T17:21:57;1.90;99.90
34360;DHT22;20624;55.870;26.506;2023-02-15T17:24:34;1.90;99.90
34360;DHT22;20624;55.870;26.506;2023-02-15T17:27:27;1.80;99.90
34360;DHT22;20624;55.870;26.506;2023-02-15T17:30:02;1.70;99.90
34360;DHT22;20624;55.870;26.506;2023-02-15T17:35:08;1.60;99.90
34360;DHT22;20624;55.870;26.506;2023-02-15T17:40:23;1.60;99.90
34360;DHT22;20624;55.870;26.506;2023-02-15T17:42:51;1.60;99.90
34360;DHT22;20624;55.870;26.506;2023-02-15T17:45:22;1.60;99.90
34360;DHT22;20624;55.870;26.506;2023-02-15T17:47:51;1.60;99.90
34360;DHT22;20624;55.870;26.506;2023-02-15T17:50:25;1.50;99.90
34360;DHT22;20624;55.870;26.506;2023-02-15T17:52:54;1.50;99.90
34360;DHT22;20624;55.870;26.506;2023-02-15T17:55:22;1.50;99.90
34360;DHT22;20624;55.870;26.506;2023-02-15T17:58:18;1.50;99.90
34360;DHT22;20624;55.870;26.506;2023-02-15T18:00:51;1.50;99.90
34360;DHT22;20624;55.870;26.506;2023-02-15T18:03:50;1.50;99.90
34360;DHT22;20624;55.870;26.506;2023-02-15T18:06:40;1.50;99.90
34360;DHT22;20624;55.870;26.506;2023-02-15T18:09:26;1.50;99.90
34360;DHT22;20624;55.870;26.506;2023-02-15T18:12:22;1.50;99.90
34360;DHT22;20624;55.870;26.506;2023-02-15T18:14:50;1.50;99.90
34360;DHT22;20624;55.870;26.506;2023-02-15T18:17:27;1.50;99.90
34360;DHT22;20624;55.870;26.506;2023-02-15T18:19:55;1.40;99.90
34360;DHT22;20624;55.870;26.506;2023-02-15T18:22:23;1.40;99.90
34360;DHT22;20624;55.870;26.506;2023-02-15T18:24:51;1.40;99.90
34360;DHT22;20624;55.870;26.506;2023-02-15T18:27:19;1.30;99.90
34360;DHT22;20624;55.870;26.506;2023-02-15T18:32:21;1.40;99.90
34360;DHT22;20624;55.870;26.506;2023-02-15T18:34:52;1.30;99.90
34360;DHT22;20624;55.870;26.506;2023-02-15T18:37:23;1.30;99.90
34360;DHT22;20624;55.870;26.506;2023-02-15T18:39:52;1.30;99.90
34360;DHT22;20624;55.870;26.506;2023-02-15T18:42:26;1.30;99.90
34360;DHT22;20624;55.870;26.506;2023-02-15T18:44:59;1.30;99.90
34360;DHT22;20624;55.870;26.506;2023-02-15T18:47:29;1.30;99.90
34360;DHT22;20624;55.870;26.506;2023-02-15T18:49:56;1.30;99.90
34360;DHT22;20624;55.870;26.506;2023-02-15T18:52:27;1.30;99.90
34360;DHT22;20624;55.870;26.506;2023-02-15T18:55:01;1.30;99.90
34360;DHT22;20624;55.870;26.506;2023-02-15T18:57:30;1.30;99.90
34360;DHT22;20624;55.870;26.506;2023-02-15T18:59:58;1.30;99.90
34360;DHT22;20624;55.870;26.506;2023-02-15T19:02:26;1.20;99.90
34360;DHT22;20624;55.870;26.506;2023-02-15T19:04:54;1.20;99.90
34360;DHT22;20624;55.870;26.506;2023-02-15T19:07:26;1.20;99.90
34360;DHT22;20624;55.870;26.506;2023-02-15T19:09:59;1.20;99.90
34360;DHT22;20624;55.870;26.506;2023-02-15T19:12:27;1.20;99.90
34360;DHT22;20624;55.870;26.506;2023-02-15T19:14:55;1.20;99.90
34360;DHT22;20624;55.870;26.506;2023-02-15T19:17:23;1.10;99.90
34360;DHT22;20624;55.870;26.506;2023-02-15T19:19:51;1.20;99.90
34360;DHT22;20624;55.870;26.506;2023-02-15T19:22:28;1.20;99.90
34360;DHT22;20624;55.870;26.506;2023-02-15T19:24:59;1.20;99.90
34360;DHT22;20624;55.870;26.506;2023-02-15T19:27:34;1.20;99.90
34360;DHT22;20624;55.870;26.506;2023-02-15T19:30:21;1.10;99.90
34360;DHT22;20624;55.870;26.506;2023-02-15T19:32:51;1.20;99.90
34360;DHT22;20624;55.870;26.506;2023-02-15T19:35:21;1.10;99.90
34360;DHT22;20624;55.870;26.506;2023-02-15T19:37:51;1.10;99.90
34360;DHT22;20624;55.870;26.506;2023-02-15T19:40:19;1.10;99.90
34360;DHT22;20624;55.870;26.506;2023-02-15T19:42:48;1.20;99.90
34360;DHT22;20624;55.870;26.506;2023-02-15T19:45:17;1.00;99.90
34360;DHT22;20624;55.870;26.506;2023-02-15T19:47:45;1.10;99.90
34360;DHT22;20624;55.870;26.506;2023-02-15T19:50:20;1.10;99.90
34360;DHT22;20624;55.870;26.506;2023-02-15T19:55:28;1.10;99.90
34360;DHT22;20624;55.870;26.506;2023-02-15T19:57:56;1.10;99.90
34360;DHT22;20624;55.870;26.506;2023-02-15T20:00:30;1.00;99.90
34360;DHT22;20624;55.870;26.506;2023-02-15T20:02:59;1.00;99.90
34360;DHT22;20624;55.870;26.506;2023-02-15T20:05:29;1.00;99.90
34360;DHT22;20624;55.870;26.506;2023-02-15T20:10:30;1.10;99.90
34360;DHT22;20624;55.870;26.506;2023-02-15T20:13:00;1.00;99.90
34360;DHT22;20624;55.870;26.506;2023-02-15T20:15:31;1.00;99.90
34360;DHT22;20624;55.870;26.506;2023-02-15T20:18:00;1.00;99.90
34360;DHT22;20624;55.870;26.506;2023-02-15T20:20:47;1.00;99.90
34360;DHT22;20624;55.870;26.506;2023-02-15T20:23:29;1.00;99.90
34360;DHT22;20624;55.870;26.506;2023-02-15T20:25:58;0.90;99.90
34360;DHT22;20624;55.870;26.506;2023-02-15T20:28:29;1.00;99.90
34360;DHT22;20624;55.870;26.506;2023-02-15T20:30:57;0.90;99.90
34360;DHT22;20624;55.870;26.506;2023-02-15T20:38:28;0.80;99.90
34360;DHT22;20624;55.870;26.506;2023-02-15T20:40:58;0.80;99.90
34360;DHT22;20624;55.870;26.506;2023-02-15T20:46:12;0.70;99.90
34360;DHT22;20624;55.870;26.506;2023-02-15T20:48:39;0.70;99.90
34360;DHT22;20624;55.870;26.506;2023-02-15T20:51:18;0.70;99.90
34360;DHT22;20624;55.870;26.506;2023-02-15T20:53:47;0.80;99.90
34360;DHT22;20624;55.870;26.506;2023-02-15T20:56:22;0.70;99.90
34360;DHT22;20624;55.870;26.506;2023-02-15T20:58:51;0.70;99.90
34360;DHT22;20624;55.870;26.506;2023-02-15T21:01:19;0.70;99.90
34360;DHT22;20624;55.870;26.506;2023-02-15T21:06:15;0.60;99.90
34360;DHT22;20624;55.870;26.506;2023-02-15T21:11:18;0.80;99.90
34360;DHT22;20624;55.870;26.506;2023-02-15T21:13:50;0.80;99.90
34360;DHT22;20624;55.870;26.506;2023-02-15T21:16:17;0.80;99.90
34360;DHT22;20624;55.870;26.506;2023-02-15T21:21:19;0.70;99.90
34360;DHT22;20624;55.870;26.506;2023-02-15T21:23:48;0.70;99.90
34360;DHT22;20624;55.870;26.506;2023-02-15T21:26:18;0.80;99.90
34360;DHT22;20624;55.870;26.506;2023-02-15T21:31:20;0.70;99.90
34360;DHT22;20624;55.870;26.506;2023-02-15T21:33:48;0.70;99.90
34360;DHT22;20624;55.870;26.506;2023-02-15T21:36:21;0.70;99.90
34360;DHT22;20624;55.870;26.506;2023-02-15T21:38:49;0.80;99.90
34360;DHT22;20624;55.870;26.506;2023-02-15T21:41:19;0.70;99.90
34360;DHT22;20624;55.870;26.506;2023-02-15T21:44:21;0.70;99.90
34360;DHT22;20624;55.870;26.506;2023-02-15T21:47:28;0.70;99.90
34360;DHT22;20624;55.870;26.506;2023-02-15T21:50:17;0.60;99.90
34360;DHT22;20624;55.870;26.506;2023-02-15T21:53:04;0.60;99.90
34360;DHT22;20624;55.870;26.506;2023-02-15T22:00:29;0.70;99.90
34360;DHT22;20624;55.870;26.506;2023-02-15T22:02:58;0.60;99.90
34360;DHT22;20624;55.870;26.506;2023-02-15T22:05:31;0.70;99.90
34360;DHT22;20624;55.870;26.506;2023-02-15T22:07:59;0.70;99.90
34360;DHT22;20624;55.870;26.506;2023-02-15T22:10:31;0.70;99.90
34360;DHT22;20624;55.870;26.506;2023-02-15T22:13:00;0.70;99.90
34360;DHT22;20624;55.870;26.506;2023-02-15T22:15:34;0.70;99.90
34360;DHT22;20624;55.870;26.506;2023-02-15T22:18:03;0.70;99.90
34360;DHT22;20624;55.870;26.506;2023-02-15T22:22:59;0.60;99.90
34360;DHT22;20624;55.870;26.506;2023-02-15T22:25:26;0.70;99.90
34360;DHT22;20624;55.870;26.506;2023-02-15T22:27:54;0.70;99.90
34360;DHT22;20624;55.870;26.506;2023-02-15T22:32:53;0.70;99.90
34360;DHT22;20624;55.870;26.506;2023-02-15T22:35:32;0.70;99.90
34360;DHT22;20624;55.870;26.506;2023-02-15T22:38:00;0.70;99.90
34360;DHT22;20624;55.870;26.506;2023-02-15T22:40:32;0.70;99.90
34360;DHT22;20624;55.870;26.506;2023-02-15T22:43:02;0.70;99.90
34360;DHT22;20624;55.870;26.506;2023-02-15T22:45:31;0.70;99.90
34360;DHT22;20624;55.870;26.506;2023-02-15T22:50:31;0.70;99.90
34360;DHT22;20624;55.870;26.506;2023-02-15T22:53:02;0.70;99.90
34360;DHT22;20624;55.870;26.506;2023-02-15T22:55:35;0.70;99.90
34360;DHT22;20624;55.870;26.506;2023-02-15T23:00:34;0.60;99.90
34360;DHT22;20624;55.870;26.506;2023-02-15T23:03:14;0.70;99.90
34360;DHT22;20624;55.870;26.506;2023-02-15T23:08:11;0.60;99.90
34360;DHT22;20624;55.870;26.506;2023-02-15T23:10:39;0.60;99.90
34360;DHT22;20624;55.870;26.506;2023-02-15T23:13:37;0.60;99.90
34360;DHT22;20624;55.870;26.506;2023-02-15T23:16:06;0.60;99.90
34360;DHT22;20624;55.870;26.506;2023-02-15T23:18:39;0.70;99.90
34360;DHT22;20624;55.870;26.506;2023-02-15T23:21:18;0.70;99.90
34360;DHT22;20624;55.870;26.506;2023-02-15T23:23:54;0.70;99.90
34360;DHT22;20624;55.870;26.506;2023-02-15T23:26:29;0.70;99.90
34360;DHT22;20624;55.870;26.506;2023-02-15T23:28:58;0.70;99.90
34360;DHT22;20624;55.870;26.506;2023-02-15T23:31:32;0.70;99.90
34360;DHT22;20624;55.870;26.506;2023-02-15T23:34:16;0.70;99.90
34360;DHT22;20624;55.870;26.506;2023-02-15T23:36:43;0.60;99.90
34360;DHT22;20624;55.870;26.506;2023-02-15T23:39:15;0.70;99.90
34360;DHT22;20624;55.870;26.506;2023-02-15T23:42:04;0.70;99.90
34360;DHT22;20624;55.870;26.506;2023-02-15T23:44:32;0.60;99.90
34360;DHT22;20624;55.870;26.506;2023-02-15T23:51:57;0.70;99.90
34360;DHT22;20624;55.870;26.506;2023-02-15T23:54:25;0.60;99.90
34360;DHT22;20624;55.870;26.506;2023-02-15T23:56:56;0.60;99.90
34360;DHT22;20624;55.870;26.506;2023-02-15T23:59:27;0.60;99.90
